createdAt,value
2023-05-15T00:00:54.064Z,31.33
2023-05-15T00:03:40.238Z,31.60
2023-05-15T00:06:26.530Z,33.38
2023-05-15T00:09:13.051Z,36.70
2023-05-15T00:11:59.553Z,34.97
2023-05-15T00:14:45.889Z,37.03
2023-05-15T00:17:32.791Z,34.15
2023-05-15T00:20:19.049Z,41.90
2023-05-15T00:23:05.265Z,35.88
2023-05-15T00:25:51.768Z,36.60
2023-05-15T00:28:37.772Z,35.55
2023-05-15T00:31:24.130Z,35.58
2023-05-15T00:34:11.324Z,40.60
2023-05-15T00:36:57.228Z,38.10
2023-05-15T00:39:43.530Z,40.70
2023-05-15T00:42:29.988Z,40.22
2023-05-15T00:45:17.505Z,38.67
2023-05-15T00:48:04.564Z,37.83
2023-05-15T00:50:54.419Z,40.80
2023-05-15T00:53:40.982Z,41.15
2023-05-15T00:56:28.759Z,44.90
2023-05-15T00:59:14.858Z,41.63
2023-05-15T01:02:01.188Z,44.97
2023-05-15T01:04:51.657Z,44.50
2023-05-15T01:07:41.634Z,39.70
2023-05-15T01:10:28.380Z,41.42
2023-05-15T01:13:15.769Z,40.60
2023-05-15T01:16:01.860Z,39.33
2023-05-15T01:18:49.210Z,39.72
2023-05-15T01:21:38.736Z,43.10
2023-05-15T01:24:40.609Z,38.90
2023-05-15T01:27:37.848Z,39.35
2023-05-15T01:30:27.819Z,42.63
2023-05-15T01:33:17.655Z,43.53
2023-05-15T01:36:22.774Z,45.38
2023-05-15T01:39:09.583Z,44.22
2023-05-15T01:41:59.690Z,37.92
2023-05-15T01:44:47.121Z,37.83
2023-05-15T01:47:37.172Z,41.75
2023-05-15T01:50:23.762Z,41.67
2023-05-15T01:53:11.393Z,37.53
2023-05-15T01:55:58.667Z,40.83
2023-05-15T01:58:47.889Z,47.88
2023-05-15T02:01:34.422Z,41.53
2023-05-15T02:04:21.463Z,37.97
2023-05-15T02:07:07.665Z,40.90
2023-05-15T02:09:54.184Z,41.30
2023-05-15T02:12:43.685Z,43.17
2023-05-15T02:15:30.830Z,46.58
2023-05-15T02:18:16.957Z,43.47
2023-05-15T02:21:03.543Z,40.70
2023-05-15T02:23:49.643Z,42.55
2023-05-15T02:26:54.438Z,41.67
2023-05-15T02:29:47.038Z,44.38
2023-05-15T02:32:45.109Z,38.42
2023-05-15T02:35:51.146Z,46.05
2023-05-15T02:38:51.510Z,45.60
2023-05-15T02:41:39.964Z,41.55
2023-05-15T02:44:26.831Z,41.20
2023-05-15T02:47:13.863Z,42.13
2023-05-15T02:50:00.537Z,45.03
2023-05-15T02:52:46.774Z,43.30
2023-05-15T02:55:33.482Z,41.75
2023-05-15T02:58:19.680Z,43.58
2023-05-15T03:01:06.455Z,42.17
2023-05-15T03:03:53.057Z,40.08
2023-05-15T03:07:04.852Z,39.25
2023-05-15T03:09:50.991Z,36.97
2023-05-15T03:12:37.901Z,35.97
2023-05-15T03:15:24.713Z,39.08
2023-05-15T03:18:11.768Z,36.17
2023-05-15T03:20:58.238Z,37.85
2023-05-15T03:23:44.579Z,38.13
2023-05-15T03:26:31.350Z,32.33
2023-05-15T03:29:17.784Z,33.78
2023-05-15T03:32:04.004Z,38.55
2023-05-15T03:34:50.140Z,39.88
2023-05-15T03:37:36.233Z,34.45
2023-05-15T03:40:22.472Z,33.60
2023-05-15T03:43:09.208Z,35.72
2023-05-15T03:45:55.934Z,35.88
2023-05-15T03:48:43.213Z,30.23
2023-05-15T03:51:29.515Z,33.70
2023-05-15T03:54:16.087Z,28.33
2023-05-15T03:57:05.043Z,43.47
2023-05-15T03:59:51.101Z,43.13
2023-05-15T04:02:38.469Z,44.88
2023-05-15T04:05:24.902Z,35.00
2023-05-15T04:08:12.681Z,47.25
2023-05-15T04:10:59.158Z,46.20
2023-05-15T04:13:45.382Z,27.45
2023-05-15T04:16:31.595Z,37.50
2023-05-15T04:19:17.961Z,37.97
2023-05-15T04:22:04.678Z,35.30
2023-05-15T04:24:51.041Z,27.52
2023-05-15T04:27:37.548Z,33.63
2023-05-15T04:30:24.211Z,32.33
2023-05-15T04:33:11.702Z,28.45
2023-05-15T04:35:58.640Z,27.27
2023-05-15T04:38:44.791Z,31.00
2023-05-15T04:41:35.814Z,28.73
2023-05-15T04:44:22.706Z,34.97
2023-05-15T04:47:09.323Z,27.02
2023-05-15T04:49:55.380Z,26.40
2023-05-15T04:52:43.323Z,28.13
2023-05-15T04:55:30.111Z,29.67
2023-05-15T04:58:17.422Z,26.70
2023-05-15T05:01:04.391Z,27.45
2023-05-15T05:03:50.931Z,29.48
2023-05-15T05:06:37.245Z,28.30
2023-05-15T05:09:23.661Z,36.08
2023-05-15T05:12:10.412Z,35.83
2023-05-15T05:14:57.318Z,37.92
2023-05-15T05:17:43.721Z,30.00
2023-05-15T05:20:30.009Z,31.25
2023-05-15T05:23:16.300Z,34.92
2023-05-15T05:26:03.574Z,48.70
2023-05-15T05:28:51.576Z,32.08
2023-05-15T05:31:38.026Z,32.80
2023-05-15T05:34:24.494Z,40.55
2023-05-15T05:37:10.736Z,31.83
2023-05-15T05:39:57.782Z,33.20
2023-05-15T05:42:43.855Z,33.67
2023-05-15T05:45:29.778Z,34.30
2023-05-15T05:48:16.134Z,27.60
2023-05-15T05:51:02.240Z,31.77
2023-05-15T05:53:48.537Z,36.67
2023-05-15T05:56:34.840Z,25.92
2023-05-15T05:59:21.519Z,28.85
2023-05-15T06:02:08.723Z,27.10
2023-05-15T06:04:55.275Z,25.23
2023-05-15T06:07:41.418Z,32.25
2023-05-15T06:10:27.656Z,23.58
2023-05-15T06:13:15.298Z,33.10
2023-05-15T06:16:03.328Z,29.35
2023-05-15T06:18:49.801Z,32.20
2023-05-15T06:21:37.263Z,28.65
2023-05-15T06:24:23.824Z,32.70
2023-05-15T06:27:12.872Z,34.03
2023-05-15T06:29:58.867Z,35.60
2023-05-15T06:33:15.268Z,37.83
2023-05-15T06:36:03.021Z,42.63
2023-05-15T06:38:52.554Z,37.88
2023-05-15T06:41:39.022Z,34.30
2023-05-15T06:44:32.042Z,30.92
2023-05-15T06:47:18.172Z,27.40
2023-05-15T06:50:05.534Z,30.95
2023-05-15T06:52:52.155Z,18.85
2023-05-15T06:55:39.089Z,26.90
2023-05-15T06:58:26.413Z,21.13
2023-05-15T07:01:12.815Z,43.95
2023-05-15T07:03:59.627Z,30.00
2023-05-15T07:06:45.877Z,29.83
2023-05-15T07:09:32.568Z,21.35
2023-05-15T07:12:18.720Z,33.92
2023-05-15T07:15:05.795Z,22.58
2023-05-15T07:17:52.357Z,25.05
2023-05-15T07:20:39.020Z,32.55
2023-05-15T07:23:25.568Z,22.05
2023-05-15T07:26:16.827Z,24.13
2023-05-15T07:29:06.365Z,21.40
2023-05-15T07:31:52.864Z,13.98
2023-05-15T07:34:39.267Z,23.33
2023-05-15T07:37:25.812Z,20.92
2023-05-15T07:40:12.256Z,24.80
2023-05-15T07:42:58.604Z,11.43
2023-05-15T07:45:45.006Z,17.15
2023-05-15T07:48:31.052Z,21.05
2023-05-15T07:51:17.314Z,12.80
2023-05-15T07:54:04.440Z,14.80
2023-05-15T07:56:50.753Z,17.58
2023-05-15T07:59:37.194Z,13.10
2023-05-15T08:02:23.952Z,10.55
2023-05-15T08:05:10.587Z,15.05
2023-05-15T08:07:57.135Z,14.23
2023-05-15T08:10:43.613Z,14.75
2023-05-15T08:13:29.918Z,14.18
2023-05-15T08:16:18.872Z,11.43
2023-05-15T08:19:07.757Z,13.85
2023-05-15T08:21:53.812Z,9.93
2023-05-15T08:24:44.809Z,12.60
2023-05-15T08:27:31.216Z,15.95
2023-05-15T08:30:17.413Z,18.30
2023-05-15T08:33:03.535Z,14.93
2023-05-15T08:35:50.725Z,14.00
2023-05-15T08:38:37.615Z,8.82
2023-05-15T08:41:40.393Z,14.70
2023-05-15T08:44:27.003Z,13.30
2023-05-15T08:47:14.598Z,11.45
2023-05-15T08:50:07.433Z,16.15
2023-05-15T08:52:58.449Z,10.48
2023-05-15T08:55:45.296Z,16.42
2023-05-15T08:58:56.273Z,14.35
2023-05-15T09:01:43.286Z,11.40
2023-05-15T09:04:33.218Z,12.38
2023-05-15T09:07:19.410Z,13.85
2023-05-15T09:10:08.827Z,12.68
2023-05-15T09:12:56.294Z,12.45
2023-05-15T09:15:43.077Z,10.48
2023-05-15T09:18:29.754Z,4.93
2023-05-15T09:21:29.348Z,14.43
2023-05-15T09:24:26.758Z,9.20
2023-05-15T09:27:13.261Z,14.00
2023-05-15T09:30:09.779Z,7.65
2023-05-15T09:32:57.428Z,10.60
2023-05-15T09:35:43.756Z,14.68
2023-05-15T09:38:31.083Z,14.23
2023-05-15T09:41:25.179Z,13.38
2023-05-15T09:44:21.576Z,9.20
2023-05-15T09:47:08.847Z,10.82
2023-05-15T09:49:55.330Z,7.55
2023-05-15T09:52:41.477Z,14.77
2023-05-15T09:55:30.639Z,11.55
2023-05-15T09:58:17.726Z,11.32
2023-05-15T10:01:04.476Z,10.63
2023-05-15T10:04:04.760Z,9.10
2023-05-15T10:06:53.389Z,13.50
2023-05-15T10:09:41.651Z,17.63
2023-05-15T10:12:31.330Z,14.80
2023-05-15T10:15:18.361Z,10.98
2023-05-15T10:18:05.537Z,16.75
2023-05-15T10:20:51.911Z,16.67
2023-05-15T10:23:39.515Z,15.95
2023-05-15T10:26:29.934Z,10.77
2023-05-15T10:29:18.395Z,11.77
2023-05-15T10:32:05.666Z,8.60
2023-05-15T10:34:52.072Z,10.05
2023-05-15T10:37:40.988Z,17.80
2023-05-15T10:40:27.826Z,12.50
2023-05-15T10:43:14.985Z,11.05
2023-05-15T10:46:01.618Z,17.73
2023-05-15T10:48:48.312Z,12.40
2023-05-15T10:51:36.960Z,13.15
2023-05-15T10:54:23.398Z,11.27
2023-05-15T10:57:10.644Z,10.45
2023-05-15T10:59:57.501Z,13.48
2023-05-15T11:02:44.134Z,17.05
2023-05-15T11:05:31.787Z,9.52
2023-05-15T11:08:19.662Z,8.65
2023-05-15T11:11:06.079Z,17.15
2023-05-15T11:14:10.455Z,10.68
2023-05-15T11:17:24.112Z,16.88
2023-05-15T11:20:18.149Z,11.82
2023-05-15T11:23:29.714Z,7.97
2023-05-15T11:26:16.054Z,7.55
2023-05-15T11:29:18.045Z,11.32
2023-05-15T11:32:04.784Z,15.88
2023-05-15T11:34:51.069Z,10.75
2023-05-15T11:37:52.004Z,9.65
2023-05-15T11:40:59.169Z,15.43
2023-05-15T11:43:53.497Z,13.75
2023-05-15T11:46:40.200Z,13.52
2023-05-15T11:49:27.570Z,6.15
2023-05-15T11:52:14.916Z,10.20
2023-05-15T11:55:01.749Z,11.40
2023-05-15T11:57:48.087Z,17.38
2023-05-15T12:00:34.346Z,9.00
2023-05-15T12:03:34.721Z,13.98
2023-05-15T12:06:21.237Z,9.30
2023-05-15T12:09:08.404Z,7.75
2023-05-15T12:11:57.803Z,11.65
2023-05-15T12:14:43.773Z,8.30
2023-05-15T12:17:32.245Z,9.10
2023-05-15T12:20:18.933Z,7.00
2023-05-15T12:23:05.634Z,10.07
2023-05-15T12:25:55.144Z,11.23
2023-05-15T12:28:41.391Z,10.90
2023-05-15T12:31:27.585Z,5.28
2023-05-15T12:34:13.838Z,4.38
2023-05-15T12:37:00.262Z,4.85
2023-05-15T12:39:53.857Z,5.43
2023-05-15T12:42:43.858Z,5.40
2023-05-15T12:45:33.452Z,13.82
2023-05-15T12:48:21.422Z,12.35
2023-05-15T12:51:08.566Z,7.57
2023-05-15T12:53:54.797Z,5.88
2023-05-15T12:56:41.270Z,5.20
2023-05-15T12:59:27.493Z,14.30
2023-05-15T13:02:14.442Z,6.60
2023-05-15T13:05:46.531Z,7.05
2023-05-15T13:08:33.378Z,7.25
2023-05-15T13:11:19.755Z,6.97
2023-05-15T13:14:11.358Z,11.70
2023-05-15T13:16:59.977Z,10.45
2023-05-15T13:19:46.265Z,9.15
2023-05-15T13:22:32.646Z,9.38
2023-05-15T13:25:20.243Z,8.05
2023-05-15T13:28:07.130Z,7.75
2023-05-15T13:30:53.570Z,6.50
2023-05-15T13:33:39.752Z,6.53
2023-05-15T13:36:26.027Z,10.77
2023-05-15T13:39:12.027Z,9.98
2023-05-15T13:42:01.080Z,10.15
2023-05-15T13:44:47.260Z,17.90
2023-05-15T13:47:33.494Z,9.13
2023-05-15T13:50:19.847Z,9.40
2023-05-15T13:53:07.270Z,10.45
2023-05-15T13:55:53.592Z,22.67
2023-05-15T13:58:40.618Z,23.55
2023-05-15T14:01:26.846Z,21.23
2023-05-15T14:04:12.991Z,21.73
2023-05-15T14:06:59.073Z,15.95
2023-05-15T14:09:48.380Z,13.23
2023-05-15T14:12:34.592Z,15.23
2023-05-15T14:15:20.960Z,15.10
2023-05-15T14:18:07.549Z,31.48
2023-05-15T14:20:53.690Z,21.33
2023-05-15T14:23:40.260Z,18.15
2023-05-15T14:26:26.387Z,20.30
2023-05-15T14:29:12.806Z,15.95
2023-05-15T14:31:59.570Z,15.10
2023-05-15T14:35:12.807Z,13.27
2023-05-15T14:37:59.109Z,23.25
2023-05-15T14:40:45.936Z,13.70
2023-05-15T14:43:33.150Z,19.65
2023-05-15T14:46:19.886Z,16.95
2023-05-15T14:49:06.551Z,20.17
2023-05-15T14:51:52.925Z,13.27
2023-05-15T14:54:39.853Z,18.13
2023-05-15T14:57:26.902Z,17.25
2023-05-15T15:00:14.089Z,15.10
2023-05-15T15:03:04.770Z,18.80
2023-05-15T15:05:52.679Z,17.73
2023-05-15T15:08:39.302Z,17.80
2023-05-15T15:11:25.689Z,22.40
2023-05-15T15:14:12.016Z,20.00
2023-05-15T15:16:58.316Z,19.13
2023-05-15T15:19:45.078Z,24.92
2023-05-15T15:22:31.591Z,14.50
2023-05-15T15:25:18.424Z,19.10
2023-05-15T15:28:05.423Z,24.65
2023-05-15T15:30:52.464Z,24.48
2023-05-15T15:33:39.592Z,18.15
2023-05-15T15:36:26.746Z,19.98
2023-05-15T15:39:13.892Z,19.20
2023-05-15T15:41:59.917Z,22.40
2023-05-15T15:44:46.174Z,23.45
2023-05-15T15:47:32.479Z,16.13
2023-05-15T15:50:19.351Z,21.35
2023-05-15T15:53:06.316Z,22.60
2023-05-15T15:55:53.008Z,16.67
2023-05-15T15:58:39.384Z,19.88
2023-05-15T16:01:33.599Z,19.17
2023-05-15T16:04:20.017Z,24.92
2023-05-15T16:07:06.648Z,26.27
2023-05-15T16:10:00.490Z,27.00
2023-05-15T16:12:57.771Z,18.85
2023-05-15T16:15:43.730Z,20.48
2023-05-15T16:18:30.013Z,16.95
2023-05-15T16:21:16.891Z,14.68
2023-05-15T16:24:03.957Z,19.52
2023-05-15T16:26:51.459Z,25.20
2023-05-15T16:29:40.612Z,22.75
2023-05-15T16:32:27.649Z,20.83
2023-05-15T16:35:13.747Z,23.15
2023-05-15T16:37:59.865Z,20.23
2023-05-15T16:40:47.022Z,21.55
2023-05-15T16:43:33.928Z,24.67
2023-05-15T16:46:20.741Z,24.40
2023-05-15T16:49:07.866Z,23.83
2023-05-15T16:51:54.786Z,56.72
2023-05-15T16:54:42.537Z,22.67
2023-05-15T16:57:29.418Z,29.88
2023-05-15T17:00:16.933Z,20.60
2023-05-15T17:03:05.234Z,21.27
2023-05-15T17:05:51.937Z,27.23
2023-05-15T17:08:38.027Z,14.73
2023-05-15T17:11:25.335Z,19.15
2023-05-15T17:14:12.231Z,21.25
2023-05-15T17:16:59.576Z,20.13
2023-05-15T17:19:45.992Z,15.93
2023-05-15T17:22:32.289Z,18.83
2023-05-15T17:25:18.492Z,16.88
2023-05-15T17:28:04.907Z,24.55
2023-05-15T17:30:51.169Z,22.52
2023-05-15T17:33:37.405Z,23.60
2023-05-15T17:36:23.580Z,22.50
2023-05-15T17:39:10.483Z,16.45
2023-05-15T17:41:56.955Z,23.90
2023-05-15T17:44:43.461Z,17.42
2023-05-15T17:47:29.765Z,16.33
2023-05-15T17:50:22.159Z,20.42
2023-05-15T17:53:34.518Z,14.38
2023-05-15T17:56:22.635Z,22.48
2023-05-15T17:59:09.339Z,21.02
2023-05-15T18:01:56.515Z,20.20
2023-05-15T18:04:42.936Z,13.52
2023-05-15T18:07:28.998Z,18.52
2023-05-15T18:10:15.187Z,23.42
2023-05-15T18:13:01.841Z,16.42
2023-05-15T18:15:49.076Z,13.73
2023-05-15T18:18:35.848Z,15.73
2023-05-15T18:21:22.153Z,18.05
2023-05-15T18:24:08.518Z,12.82
2023-05-15T18:26:54.749Z,18.58
2023-05-15T18:29:42.190Z,16.60
2023-05-15T18:32:29.544Z,20.17
2023-05-15T18:35:16.594Z,13.52
2023-05-15T18:38:04.900Z,15.15
2023-05-15T18:40:52.967Z,25.13
2023-05-15T18:43:40.043Z,17.25
2023-05-15T18:46:28.519Z,13.75
2023-05-15T18:49:17.401Z,20.60
2023-05-15T18:52:03.751Z,16.73
2023-05-15T18:54:49.893Z,17.92
2023-05-15T18:57:39.437Z,17.23
2023-05-15T19:00:37.354Z,17.88
2023-05-15T19:03:26.035Z,22.85
2023-05-15T19:06:13.568Z,13.88
2023-05-15T19:09:00.072Z,15.77
2023-05-15T19:11:48.120Z,13.57
2023-05-15T19:14:35.292Z,16.90
2023-05-15T19:17:23.570Z,13.90
2023-05-15T19:20:11.364Z,12.73
2023-05-15T19:23:04.985Z,14.82
2023-05-15T19:25:51.753Z,13.10
2023-05-15T19:28:38.991Z,12.85
2023-05-15T19:31:31.956Z,14.02
2023-05-15T19:37:06.608Z,18.75
2023-05-15T19:39:53.375Z,11.50
2023-05-15T19:42:40.319Z,12.75
2023-05-15T19:45:27.362Z,16.23
2023-05-15T19:48:14.260Z,14.55
2023-05-15T19:51:00.947Z,17.15
2023-05-15T19:53:47.949Z,12.32
2023-05-15T19:56:34.337Z,14.48
2023-05-15T19:59:21.042Z,10.60
2023-05-15T20:02:11.129Z,17.75
2023-05-15T20:04:58.090Z,15.73
2023-05-15T20:07:45.182Z,17.67
2023-05-15T20:10:32.812Z,20.45
2023-05-15T20:13:19.948Z,16.92
2023-05-15T20:16:12.819Z,18.70
2023-05-15T20:19:00.674Z,16.27
2023-05-15T20:21:47.569Z,15.20
2023-05-15T20:24:34.191Z,15.02
2023-05-15T20:27:20.557Z,16.92
2023-05-15T20:30:07.397Z,26.33
2023-05-15T20:32:54.489Z,21.30
2023-05-15T20:35:41.297Z,22.38
2023-05-15T20:38:28.407Z,23.48
2023-05-15T20:41:16.653Z,19.88
2023-05-15T20:44:03.388Z,27.80
2023-05-15T20:46:50.104Z,16.90
2023-05-15T20:49:36.284Z,25.25
2023-05-15T20:52:23.415Z,19.50
2023-05-15T20:55:17.199Z,18.20
2023-05-15T20:58:04.259Z,23.05
2023-05-15T21:00:50.675Z,18.15
2023-05-15T21:03:37.295Z,16.67
2023-05-15T21:06:23.675Z,18.73
2023-05-15T21:09:09.816Z,14.52
2023-05-15T21:11:55.984Z,12.48
2023-05-15T21:14:46.922Z,21.75
2023-05-15T21:17:33.970Z,16.02
2023-05-15T21:20:20.803Z,11.55
2023-05-15T21:23:08.340Z,15.20
2023-05-15T21:25:55.122Z,14.63
2023-05-15T21:28:42.075Z,12.93
2023-05-15T21:31:29.175Z,17.35
2023-05-15T21:34:16.105Z,12.48
2023-05-15T21:37:03.190Z,9.35
2023-05-15T21:39:50.320Z,9.98
2023-05-15T21:42:37.330Z,14.93
2023-05-15T21:45:24.067Z,9.90
2023-05-15T21:48:11.019Z,12.75
2023-05-15T21:50:58.881Z,11.98
2023-05-15T21:53:45.688Z,11.15
2023-05-15T21:56:32.650Z,14.68
2023-05-15T21:59:19.584Z,16.10
2023-05-15T22:02:07.053Z,9.05
2023-05-15T22:04:54.104Z,17.23
2023-05-15T22:07:41.158Z,12.93
2023-05-15T22:10:28.289Z,11.95
2023-05-15T22:13:15.371Z,17.48
2023-05-15T22:16:02.438Z,8.73
2023-05-15T22:18:50.436Z,11.55
2023-05-15T22:21:37.309Z,13.65
2023-05-15T22:24:24.412Z,14.88
2023-05-15T22:27:11.691Z,16.08
2023-05-15T22:29:58.734Z,18.10
2023-05-15T22:33:11.329Z,18.05
2023-05-15T22:35:58.875Z,11.07
2023-05-15T22:38:45.644Z,15.60
2023-05-15T22:41:32.823Z,14.20
2023-05-15T22:44:19.750Z,11.68
2023-05-15T22:47:06.637Z,18.13
2023-05-15T22:49:53.853Z,10.05
2023-05-15T22:52:40.994Z,10.75
2023-05-15T22:55:27.603Z,12.50
2023-05-15T22:58:14.683Z,18.13
2023-05-15T23:01:01.555Z,12.32
2023-05-15T23:03:48.422Z,13.85
2023-05-15T23:06:35.496Z,15.10
2023-05-15T23:09:23.384Z,17.52
2023-05-15T23:12:12.555Z,17.13
2023-05-15T23:14:59.578Z,17.05
2023-05-15T23:17:46.944Z,20.80
2023-05-15T23:20:33.835Z,19.30
2023-05-15T23:23:20.560Z,12.85
2023-05-15T23:26:07.648Z,17.83
2023-05-15T23:28:55.730Z,13.85
2023-05-15T23:31:43.834Z,14.45
2023-05-15T23:34:30.751Z,13.50
2023-05-15T23:37:17.875Z,18.58
2023-05-15T23:40:06.105Z,16.52
2023-05-15T23:42:52.850Z,19.02
2023-05-15T23:45:39.622Z,23.13
2023-05-15T23:48:26.638Z,16.60
2023-05-15T23:51:12.942Z,18.25
2023-05-15T23:53:59.802Z,13.80
2023-05-15T23:56:46.108Z,22.63
2023-05-15T23:59:32.654Z,18.25
